Time;durP1;ratioP1;P1;durP2;ratioP2;P2;SDS_P1;SDS_P2;PMS_P1;PMS_P2;Temp;Humidity;BMP_temperature;BMP_pressure;BME280_temperature;BME280_humidity;BME280_pressure;Samples;Min_cycle;Max_cycle;Signal;HPM_P1;HPM_P2
2023/10/23 00:02:24;;;;;;;971.30;416.93;;;7.80;99.90;;;;;;5154283;27;20344;-86
2023/10/23 00:04:50;;;;;;;1065.93;468.43;;;7.70;99.90;;;;;;5120853;27;20069;-85
2023/10/23 00:07:16;;;;;;;1057.90;466.77;;;7.80;99.90;;;;;;5133647;27;20054;-86
2023/10/23 00:09:42;;;;;;;961.23;415.90;;;7.80;99.90;;;;;;5116853;27;20104;-86
2023/10/23 00:12:08;;;;;;;954.27;418.10;;;7.80;99.90;;;;;;5116803;27;20445;-85
2023/10/23 00:14:35;;;;;;;1034.10;468.77;;;7.80;99.90;;;;;;5137854;27;20444;-85
2023/10/23 00:17:04;;;;;;;1052.97;470.20;;;7.80;99.90;;;;;;5156550;27;20051;-86
2023/10/23 00:19:30;;;;;;;1037.90;470.63;;;8.40;99.90;;;;;;5137598;27;20039;-85
2023/10/23 00:21:55;;;;;;;961.73;421.67;;;7.80;99.90;;;;;;5137349;27;20046;-85
2023/10/23 00:24:22;;;;;;;1069.10;461.77;;;8.30;99.90;;;;;;5137297;27;20047;-85
2023/10/23 00:26:48;;;;;;;974.67;416.30;;;8.70;99.90;;;;;;5119430;27;20045;-85
2023/10/23 00:29:13;;;;;;;960.30;414.23;;;7.80;99.90;;;;;;5137328;27;20038;-86
2023/10/23 00:31:39;;;;;;;958.90;411.30;;;8.50;99.90;;;;;;5137358;27;20559;-85
2023/10/23 00:34:06;;;;;;;974.13;413.57;;;7.70;99.90;;;;;;5168647;27;20046;-86
2023/10/23 00:36:32;;;;;;;1045.17;469.20;;;7.30;99.90;;;;;;5161222;27;20066;-85
2023/10/23 00:38:57;;;;;;;955.13;414.33;;;8.40;99.90;;;;;;5137194;27;20074;-85
2023/10/23 00:41:23;;;;;;;1037.10;462.77;;;7.70;99.90;;;;;;5119893;27;20071;-86
2023/10/23 00:43:49;;;;;;;928.17;407.88;;;8.60;99.90;;;;;;5155424;27;20391;-85
2023/10/23 00:46:18;;;;;;;921.13;407.65;;;8.30;99.90;;;;;;5136186;27;20133;-86
2023/10/23 00:48:46;;;;;;;931.00;413.30;;;8.40;99.90;;;;;;5156198;27;20039;-85
2023/10/23 00:51:12;;;;;;;1020.03;457.40;;;8.60;99.90;;;;;;5155430;27;20096;-85
2023/10/23 00:53:40;;;;;;;1019.90;462.27;;;8.60;99.90;;;;;;5155375;27;20050;-85
2023/10/23 00:56:08;;;;;;;1011.00;478.57;;;8.20;99.90;;;;;;5136717;27;20415;-85
2023/10/23 00:58:42;;;;;;;1024.93;477.23;;;7.80;99.90;;;;;;5132434;27;20127;-85
2023/10/23 01:01:12;;;;;;;1017.33;473.63;;;7.80;99.90;;;;;;5127777;27;20054;-86
2023/10/23 01:03:42;;;;;;;1011.47;468.23;;;7.70;99.90;;;;;;5134349;27;20061;-86
2023/10/23 01:06:09;;;;;;;923.77;412.83;;;7.80;99.90;;;;;;5134476;27;20035;-86
2023/10/23 01:08:35;;;;;;;1027.07;483.63;;;7.70;99.90;;;;;;5130652;27;20402;-86
2023/10/23 01:11:01;;;;;;;1028.20;466.00;;;7.70;99.90;;;;;;5154858;27;20491;-86
2023/10/23 01:13:27;;;;;;;1029.57;472.00;;;7.70;99.90;;;;;;5154985;27;20035;-86
2023/10/23 01:15:53;;;;;;;1033.67;473.37;;;8.50;99.90;;;;;;5155032;27;20046;-85
2023/10/23 01:18:19;;;;;;;1008.60;465.43;;;8.10;99.90;;;;;;5154253;27;20047;-86
2023/10/23 01:20:45;;;;;;;934.23;405.67;;;7.70;99.90;;;;;;5154662;27;20045;-86
2023/10/23 01:23:11;;;;;;;930.23;409.30;;;8.20;99.90;;;;;;5136166;27;20046;-87
2023/10/23 01:25:38;;;;;;;1012.73;465.77;;;7.60;99.90;;;;;;5154712;27;20072;-86
2023/10/23 01:28:04;;;;;;;999.00;465.90;;;7.60;99.90;;;;;;5136863;27;20078;-86
2023/10/23 01:30:30;;;;;;;920.00;410.00;;;8.40;99.90;;;;;;5154115;27;20109;-86
2023/10/23 01:32:56;;;;;;;1017.17;474.03;;;7.60;99.90;;;;;;5136243;27;20458;-86
2023/10/23 01:35:22;;;;;;;1021.93;481.17;;;7.70;99.90;;;;;;5154606;27;20039;-86
2023/10/23 01:37:48;;;;;;;998.60;483.03;;;7.60;99.90;;;;;;5118855;27;20175;-86
2023/10/23 01:40:14;;;;;;;988.70;473.40;;;8.50;99.90;;;;;;5153895;27;20039;-86
2023/10/23 01:42:43;;;;;;;996.33;462.13;;;7.60;99.90;;;;;;5135786;27;20130;-86
2023/10/23 01:45:09;;;;;;;901.47;403.70;;;7.80;99.90;;;;;;5144727;27;20046;-86
2023/10/23 01:47:35;;;;;;;921.87;409.37;;;7.50;99.90;;;;;;5156496;27;20053;-86
2023/10/23 01:50:01;;;;;;;890.30;402.00;;;8.00;99.90;;;;;;5169403;27;20126;-86
2023/10/23 01:52:27;;;;;;;989.23;471.23;;;7.50;99.90;;;;;;5135335;27;20133;-86
2023/10/23 01:54:53;;;;;;;993.63;484.27;;;7.80;99.90;;;;;;5135808;27;20121;-86
2023/10/23 01:57:19;;;;;;;900.80;408.20;;;8.20;99.90;;;;;;5154146;27;20127;-86
2023/10/23 01:59:45;;;;;;;913.65;410.35;;;8.10;99.90;;;;;;5135772;27;20113;-86
2023/10/23 02:02:10;;;;;;;997.53;470.67;;;7.40;99.90;;;;;;5131786;28;20043;-86
2023/10/23 02:04:38;;;;;;;909.93;409.63;;;8.10;99.90;;;;;;5133545;27;20039;-86
2023/10/23 02:07:04;;;;;;;982.00;476.25;;;7.60;99.90;;;;;;5133109;27;20061;-86
2023/10/23 02:09:31;;;;;;;979.00;472.37;;;7.40;99.90;;;;;;5133515;28;20043;-86
2023/10/23 02:11:58;;;;;;;900.28;399.48;;;7.70;99.90;;;;;;5145297;27;20446;-86
2023/10/23 02:14:24;;;;;;;888.97;404.10;;;7.40;99.90;;;;;;5134993;27;20170;-86
2023/10/23 02:16:49;;;;;;;977.97;464.20;;;7.80;99.90;;;;;;5135206;27;20168;-86
2023/10/23 02:19:15;;;;;;;902.80;407.00;;;7.50;99.90;;;;;;5154348;27;20428;-85
2023/10/23 02:21:44;;;;;;;988.03;470.40;;;8.10;99.90;;;;;;5136113;27;20083;-86
2023/10/23 02:24:10;;;;;;;986.83;468.45;;;7.60;99.90;;;;;;5135311;27;20502;-86
2023/10/23 02:26:36;;;;;;;905.43;408.53;;;8.10;99.90;;;;;;5135395;27;20043;-86
2023/10/23 02:29:01;;;;;;;979.10;465.67;;;7.40;99.90;;;;;;5135376;27;20034;-86
2023/10/23 02:31:27;;;;;;;952.43;470.50;;;7.40;99.90;;;;;;5154008;27;20119;-87
2023/10/23 02:33:53;;;;;;;955.77;475.03;;;7.30;99.90;;;;;;5131580;27;20063;-85
2023/10/23 02:36:18;;;;;;;871.00;401.17;;;8.00;99.90;;;;;;5130378;27;20419;-85
2023/10/23 02:38:44;;;;;;;963.87;477.23;;;8.00;99.90;;;;;;5133292;28;20032;-86
2023/10/23 02:41:10;;;;;;;872.33;395.42;;;7.70;99.90;;;;;;5116537;27;20080;-86
2023/10/23 02:43:36;;;;;;;866.58;392.48;;;7.40;99.90;;;;;;5145351;27;20034;-86
2023/10/23 02:46:02;;;;;;;872.72;391.60;;;8.10;99.90;;;;;;5121196;27;20038;-86
2023/10/23 02:48:28;;;;;;;880.10;394.55;;;7.20;99.90;;;;;;5139308;27;20043;-86
2023/10/23 02:50:58;;;;;;;875.67;400.83;;;7.60;99.90;;;;;;5139086;27;20057;-86
2023/10/23 02:53:24;;;;;;;880.25;399.85;;;8.00;99.90;;;;;;5158373;27;20478;-86
2023/10/23 02:55:50;;;;;;;874.10;399.50;;;7.60;99.90;;;;;;5166721;27;20393;-86
2023/10/23 02:58:17;;;;;;;949.77;468.40;;;7.30;99.90;;;;;;5178183;27;20038;-86
2023/10/23 03:00:43;;;;;;;866.42;393.30;;;7.30;99.90;;;;;;5176459;27;20550;-86
2023/10/23 03:03:10;;;;;;;860.83;396.30;;;8.10;99.90;;;;;;5178112;27;20043;-86
2023/10/23 03:05:36;;;;;;;872.95;398.25;;;7.30;99.90;;;;;;5143993;27;20039;-86
2023/10/23 03:08:02;;;;;;;875.38;397.85;;;8.00;99.90;;;;;;5139077;27;20034;-86
2023/10/23 03:10:29;;;;;;;948.38;464.70;;;7.20;99.90;;;;;;5139064;27;20360;-86
2023/10/23 03:12:54;;;;;;;971.47;461.10;;;7.80;99.90;;;;;;5138635;27;20023;-86
2023/10/23 03:15:20;;;;;;;887.00;404.05;;;8.00;99.90;;;;;;5134057;27;20125;-86
2023/10/23 03:17:46;;;;;;;969.30;470.13;;;7.10;99.90;;;;;;5136557;27;20051;-85
2023/10/23 03:20:11;;;;;;;976.63;470.67;;;7.10;99.90;;;;;;5118150;27;20118;-86
2023/10/23 03:22:38;;;;;;;960.77;456.30;;;7.70;99.90;;;;;;5136283;27;20180;-86
2023/10/23 03:25:05;;;;;;;978.33;457.67;;;7.60;99.90;;;;;;5129563;27;20054;-86
2023/10/23 03:27:32;;;;;;;983.00;465.17;;;7.10;99.90;;;;;;5123806;27;20398;-86
2023/10/23 03:29:57;;;;;;;975.67;464.43;;;7.10;99.90;;;;;;5159785;27;20440;-86
2023/10/23 03:32:23;;;;;;;988.47;458.60;;;7.80;99.90;;;;;;5177737;27;20053;-86
2023/10/23 03:34:49;;;;;;;904.83;401.50;;;7.60;99.90;;;;;;5159101;27;20384;-86
2023/10/23 03:37:16;;;;;;;904.07;401.00;;;7.10;99.90;;;;;;5120898;27;20049;-86
2023/10/23 03:39:42;;;;;;;981.03;457.63;;;7.60;99.90;;;;;;5137864;27;20043;-86
2023/10/23 03:42:10;;;;;;;909.03;406.30;;;7.30;99.90;;;;;;5137938;27;20138;-86
2023/10/23 03:44:36;;;;;;;904.30;402.20;;;7.50;99.90;;;;;;5156630;27;20091;-86
2023/10/23 03:47:02;;;;;;;900.07;400.40;;;8.00;99.90;;;;;;5137134;27;20038;-86
2023/10/23 03:49:28;;;;;;;971.20;457.63;;;7.10;99.90;;;;;;5142050;27;20390;-86
2023/10/23 03:51:54;;;;;;;974.37;466.07;;;7.60;99.90;;;;;;5158232;27;20034;-86
2023/10/23 03:54:20;;;;;;;968.27;450.10;;;7.10;99.90;;;;;;5177792;27;20035;-86
2023/10/23 03:56:45;;;;;;;969.67;468.83;;;7.10;99.90;;;;;;5148663;27;20499;-86
2023/10/23 03:59:11;;;;;;;967.27;457.23;;;7.70;99.90;;;;;;5137913;27;20039;-86
2023/10/23 04:01:37;;;;;;;888.30;397.77;;;7.30;99.90;;;;;;5138983;27;20110;-86
2023/10/23 04:04:03;;;;;;;890.47;398.57;;;7.90;99.90;;;;;;5121423;27;20087;-86
2023/10/23 04:06:28;;;;;;;971.53;463.30;;;7.00;99.90;;;;;;5137703;27;20149;-85
2023/10/23 04:08:54;;;;;;;972.03;461.10;;;6.90;99.90;;;;;;5119311;27;20079;-85
2023/10/23 04:11:39;;;;;;;980.13;448.50;;;7.70;99.90;;;;;;5120011;27;20098;-85
2023/10/23 04:14:05;;;;;;;920.28;406.70;;;6.90;99.90;;;;;;5138431;27;20394;-85
2023/10/23 04:16:31;;;;;;;980.67;454.83;;;6.90;99.90;;;;;;5163999;27;20057;-86
2023/10/23 04:18:56;;;;;;;889.97;394.93;;;7.30;99.90;;;;;;5123687;27;20050;-86
2023/10/23 04:21:23;;;;;;;871.67;387.23;;;7.60;99.90;;;;;;5138068;27;20041;-86
2023/10/23 04:23:49;;;;;;;879.80;394.33;;;7.60;99.90;;;;;;5156424;27;20038;-86
2023/10/23 04:26:15;;;;;;;975.17;448.67;;;7.10;99.90;;;;;;5156339;27;20050;-86
2023/10/23 04:28:41;;;;;;;902.57;397.53;;;7.60;99.90;;;;;;5137402;27;20439;-86
2023/10/23 04:31:06;;;;;;;987.67;452.87;;;6.80;99.90;;;;;;5120009;27;20045;-86
2023/10/23 04:33:33;;;;;;;999.07;444.83;;;7.00;99.90;;;;;;5155972;27;20043;-86
2023/10/23 04:35:59;;;;;;;1021.53;434.00;;;6.60;99.90;;;;;;5156411;27;20092;-85
2023/10/23 04:38:25;;;;;;;1028.27;440.83;;;7.00;99.90;;;;;;5137610;27;20428;-85
2023/10/23 04:40:53;;;;;;;947.63;404.70;;;7.40;99.90;;;;;;5134026;27;20047;-86
2023/10/23 04:43:21;;;;;;;996.47;438.60;;;7.10;99.90;;;;;;5117062;27;20035;-85
2023/10/23 04:45:48;;;;;;;918.80;396.13;;;7.20;99.90;;;;;;5116741;27;20054;-86
2023/10/23 04:48:14;;;;;;;921.27;399.47;;;7.10;99.90;;;;;;5116808;27;20058;-85
2023/10/23 04:50:40;;;;;;;998.93;449.83;;;6.50;99.90;;;;;;5131967;27;20035;-85
2023/10/23 04:53:06;;;;;;;1015.70;433.53;;;5.20;99.90;;;;;;5155730;27;20107;-86
2023/10/23 04:55:35;;;;;;;1009.67;433.17;;;6.70;99.90;;;;;;5120376;27;20496;-86
2023/10/23 04:58:02;;;;;;;940.17;393.90;;;6.20;99.90;;;;;;5155664;27;20439;-85
2023/10/23 05:00:28;;;;;;;942.60;401.43;;;6.80;99.90;;;;;;5155391;27;20045;-85
2023/10/23 05:02:54;;;;;;;1026.77;444.53;;;6.20;99.90;;;;;;5136447;27;20142;-85
2023/10/23 05:05:20;;;;;;;1028.27;427.97;;;6.20;99.90;;;;;;5156966;27;20042;-85
2023/10/23 05:07:46;;;;;;;1035.17;436.03;;;7.00;99.90;;;;;;5175400;27;20049;-86
2023/10/23 05:10:12;;;;;;;959.53;401.57;;;6.20;99.90;;;;;;5153069;27;20046;-85
2023/10/23 05:12:38;;;;;;;1026.07;452.77;;;6.60;99.90;;;;;;5133237;27;20039;-86
2023/10/23 05:15:05;;;;;;;1021.87;441.77;;;6.90;99.90;;;;;;5115969;27;20399;-86
2023/10/23 05:17:31;;;;;;;944.43;399.13;;;5.90;99.90;;;;;;5134239;27;20111;-87
2023/10/23 05:19:57;;;;;;;936.23;403.70;;;6.10;99.90;;;;;;5134537;27;20506;-86
2023/10/23 05:22:23;;;;;;;924.17;401.37;;;6.30;99.90;;;;;;5139256;27;20164;-86
2023/10/23 05:24:50;;;;;;;949.53;394.50;;;6.20;99.90;;;;;;5156899;27;20104;-86
2023/10/23 05:27:20;;;;;;;938.60;395.63;;;6.10;99.90;;;;;;5136360;27;20414;-86
2023/10/23 05:29:46;;;;;;;1030.07;443.17;;;6.50;99.90;;;;;;5119331;27;20535;-86
2023/10/23 05:32:12;;;;;;;962.83;395.00;;;4.40;99.90;;;;;;5154997;27;20039;-85
2023/10/23 05:34:37;;;;;;;969.23;396.50;;;4.70;99.90;;;;;;5136378;27;20558;-86
2023/10/23 05:37:03;;;;;;;1044.87;431.10;;;6.10;99.90;;;;;;5136827;27;20111;-86
2023/10/23 05:39:29;;;;;;;976.67;395.30;;;5.50;99.90;;;;;;5155016;27;20039;-85
2023/10/23 05:41:55;;;;;;;967.67;405.00;;;5.40;99.90;;;;;;5143670;27;20066;-85
2023/10/23 05:44:21;;;;;;;1048.23;426.37;;;5.30;99.90;;;;;;5136188;27;20034;-85
2023/10/23 05:46:46;;;;;;;1061.63;431.40;;;4.80;99.90;;;;;;5136319;27;20159;-86
2023/10/23 05:49:12;;;;;;;1064.10;430.73;;;5.20;99.90;;;;;;5154888;27;20043;-85
2023/10/23 05:51:37;;;;;;;1005.77;403.07;;;5.30;99.90;;;;;;5155028;27;20043;-85
2023/10/23 05:54:03;;;;;;;1008.30;404.17;;;6.20;99.90;;;;;;5135483;27;20412;-85
2023/10/23 05:56:29;;;;;;;1007.20;409.10;;;5.20;99.90;;;;;;5140830;27;20528;-86
2023/10/23 05:58:56;;;;;;;1008.43;403.07;;;5.90;99.90;;;;;;5156876;27;20042;-86
2023/10/23 06:01:22;;;;;;;1014.77;409.70;;;5.10;99.90;;;;;;5157171;27;20046;-85
2023/10/23 06:03:48;;;;;;;1087.57;425.10;;;6.00;99.90;;;;;;5170835;27;20041;-86
2023/10/23 06:06:14;;;;;;;1030.13;412.47;;;3.90;99.90;;;;;;5131151;28;20065;-86
2023/10/23 06:08:40;;;;;;;1102.50;431.07;;;5.40;99.90;;;;;;5109812;28;20085;-85
2023/10/23 06:11:12;;;;;;;1006.80;404.50;;;5.70;99.90;;;;;;5148175;27;20070;-85
2023/10/23 06:13:38;;;;;;;1008.13;404.63;;;5.70;99.90;;;;;;5134668;27;20026;-85
2023/10/23 06:16:05;;;;;;;1080.40;415.67;;;6.00;99.90;;;;;;5121580;27;20064;-87
2023/10/23 06:18:35;;;;;;;1073.93;428.23;;;5.40;99.90;;;;;;5137116;27;20058;-86
2023/10/23 06:21:05;;;;;;;1077.70;422.03;;;5.60;99.90;;;;;;5120019;27;20407;-85
2023/10/23 06:23:40;;;;;;;1009.83;410.10;;;5.90;99.90;;;;;;5119807;27;20039;-87
2023/10/23 06:26:07;;;;;;;1022.63;412.38;;;5.10;99.90;;;;;;5102661;27;20076;-85
2023/10/23 06:28:34;;;;;;;1035.37;416.50;;;3.70;99.90;;;;;;5119601;27;20039;-85
2023/10/23 06:31:10;;;;;;;1033.67;418.63;;;5.30;99.90;;;;;;5153818;27;20046;-84
2023/10/23 06:33:38;;;;;;;1103.83;428.97;;;4.80;99.90;;;;;;5140326;27;20046;-84
2023/10/23 06:36:05;;;;;;;1059.67;422.33;;;5.70;99.90;;;;;;5139458;27;20372;-85
2023/10/23 06:38:31;;;;;;;1065.03;426.97;;;4.80;99.90;;;;;;5140393;27;20083;-84
2023/10/23 06:41:05;;;;;;;1062.30;425.47;;;5.00;99.90;;;;;;5128029;27;20073;-86
2023/10/23 06:43:32;;;;;;;1069.33;433.07;;;4.80;99.90;;;;;;5131307;27;20046;-85
2023/10/23 06:45:57;;;;;;;1122.93;428.93;;;4.80;99.90;;;;;;5135779;27;20038;-86
2023/10/23 06:48:23;;;;;;;1115.97;424.80;;;5.10;99.90;;;;;;5135873;27;20071;-86
2023/10/23 06:50:49;;;;;;;1142.83;440.53;;;4.90;99.90;;;;;;5155703;27;20486;-84
2023/10/23 06:53:15;;;;;;;1075.27;427.57;;;4.70;99.90;;;;;;5122662;27;20038;-84
2023/10/23 06:55:48;;;;;;;1148.10;428.43;;;4.90;99.90;;;;;;5122190;27;20116;-84
2023/10/23 06:58:14;;;;;;;1159.50;441.47;;;5.70;99.90;;;;;;5139456;27;20035;-83
2023/10/23 07:00:40;;;;;;;1163.27;441.23;;;5.50;99.90;;;;;;5158284;27;20039;-86
2023/10/23 07:03:06;;;;;;;1104.77;435.50;;;4.70;99.90;;;;;;5139716;27;20171;-82
2023/10/23 07:05:32;;;;;;;1102.73;442.23;;;5.00;99.90;;;;;;5157610;27;20066;-87
2023/10/23 07:07:58;;;;;;;1193.07;444.20;;;4.70;99.90;;;;;;5136400;27;20043;-87
2023/10/23 07:10:24;;;;;;;1192.57;442.60;;;5.70;99.90;;;;;;5118913;27;20134;-86
2023/10/23 07:12:49;;;;;;;1213.73;451.13;;;4.40;99.90;;;;;;5132396;27;20095;-87
2023/10/23 07:15:15;;;;;;;1163.23;458.80;;;5.40;99.90;;;;;;5174717;27;20086;-88
2023/10/23 07:17:41;;;;;;;1223.10;448.30;;;5.80;99.90;;;;;;5159778;27;20410;-87
2023/10/23 07:20:07;;;;;;;1222.40;452.50;;;4.40;99.90;;;;;;5178657;27;20038;-87
2023/10/23 07:22:33;;;;;;;1230.67;452.60;;;4.70;99.90;;;;;;5160239;27;20088;-85
2023/10/23 07:24:59;;;;;;;1234.23;452.77;;;5.40;99.90;;;;;;5160263;27;20042;-87
2023/10/23 07:27:26;;;;;;;1180.77;467.50;;;5.20;99.90;;;;;;5158988;27;20160;-86
2023/10/23 07:29:53;;;;;;;1184.63;473.33;;;5.50;99.90;;;;;;5127093;27;20035;-86
2023/10/23 07:32:19;;;;;;;1236.53;455.33;;;5.80;99.90;;;;;;5139153;27;20428;-87
2023/10/23 07:34:44;;;;;;;1241.50;456.50;;;6.00;99.90;;;;;;5170773;27;20041;-86
2023/10/23 07:37:12;;;;;;;1247.33;461.93;;;5.80;99.90;;;;;;5159553;27;20462;-87
2023/10/23 07:39:37;;;;;;;1189.47;473.60;;;5.90;99.90;;;;;;5159557;27;20038;-86
2023/10/23 07:42:03;;;;;;;1248.33;461.77;;;5.90;99.90;;;;;;5159418;27;20072;-86
2023/10/23 07:44:29;;;;;;;1204.57;480.73;;;5.30;99.90;;;;;;5159343;27;20418;-87
2023/10/23 07:46:55;;;;;;;1205.17;476.93;;;6.30;99.90;;;;;;5142044;27;20073;-86
2023/10/23 07:49:20;;;;;;;1257.37;460.17;;;5.90;99.90;;;;;;5177308;27;20436;-87
2023/10/23 07:51:46;;;;;;;1212.90;479.53;;;5.80;99.90;;;;;;5161780;27;20150;-86
2023/10/23 07:54:12;;;;;;;1265.73;463.53;;;6.00;99.90;;;;;;5138544;27;20527;-87
2023/10/23 07:56:37;;;;;;;1223.50;477.30;;;6.20;99.90;;;;;;5157072;27;20072;-86
2023/10/23 07:59:04;;;;;;;1226.47;472.40;;;6.50;99.90;;;;;;5157289;27;20041;-86
2023/10/23 08:01:30;;;;;;;1227.77;484.13;;;5.90;99.90;;;;;;5157203;27;20043;-86
2023/10/23 08:03:55;;;;;;;1267.93;463.57;;;6.00;99.90;;;;;;5156901;27;20444;-87
2023/10/23 08:06:21;;;;;;;1239.10;479.23;;;6.60;99.90;;;;;;5136134;27;20068;-87
2023/10/23 08:08:47;;;;;;;1274.33;465.87;;;7.20;99.90;;;;;;5136292;27;20123;-86
2023/10/23 08:11:13;;;;;;;1275.63;467.63;;;6.40;99.90;;;;;;5134648;27;20114;-86
2023/10/23 08:13:39;;;;;;;1273.43;468.43;;;6.50;99.90;;;;;;5149971;27;20046;-87
2023/10/23 08:16:06;;;;;;;1233.90;482.73;;;7.50;99.90;;;;;;5158642;27;20065;-86
2023/10/23 08:18:34;;;;;;;1232.73;482.33;;;6.70;99.90;;;;;;5159006;27;20390;-86
2023/10/23 08:20:59;;;;;;;1275.73;471.20;;;6.80;99.90;;;;;;5163249;27;20440;-85
2023/10/23 08:23:25;;;;;;;1293.10;476.93;;;7.90;99.90;;;;;;5158979;27;20057;-85
2023/10/23 08:25:51;;;;;;;1248.73;488.43;;;7.60;99.90;;;;;;5155789;27;20043;-86
2023/10/23 08:28:16;;;;;;;1303.90;483.50;;;8.00;99.90;;;;;;5155847;27;20398;-87
2023/10/23 08:30:42;;;;;;;1296.07;502.27;;;7.30;99.90;;;;;;5155958;27;20424;-86
2023/10/23 08:33:09;;;;;;;1316.90;508.63;;;7.40;99.90;;;;;;5157618;27;20070;-85
2023/10/23 08:35:35;;;;;;;1304.43;503.00;;;8.40;99.90;;;;;;5159827;27;20031;-85
2023/10/23 08:38:00;;;;;;;1311.67;501.40;;;7.60;99.90;;;;;;5138716;27;20047;-89
2023/10/23 08:40:26;;;;;;;1315.77;497.80;;;7.90;99.90;;;;;;5140248;27;20038;-87
2023/10/23 08:42:52;;;;;;;1308.27;509.17;;;7.90;99.90;;;;;;5137651;27;20390;-85
2023/10/23 08:45:18;;;;;;;1311.37;511.97;;;8.00;99.90;;;;;;5156282;27;20039;-87
2023/10/23 08:47:44;;;;;;;1313.20;510.97;;;8.60;99.90;;;;;;5137195;27;20046;-87
2023/10/23 08:50:12;;;;;;;1315.97;513.93;;;8.90;99.90;;;;;;5137365;27;20456;-86
2023/10/23 08:52:59;;;;;;;1317.60;516.63;;;9.00;99.90;;;;;;5156047;27;20151;-86
2023/10/23 08:55:30;;;;;;;1305.97;509.17;;;8.50;99.90;;;;;;5138444;27;20043;-87
2023/10/23 08:57:59;;;;;;;1329.83;507.53;;;8.60;99.90;;;;;;5137335;27;20082;-86
2023/10/23 09:00:24;;;;;;;1288.00;505.77;;;9.20;99.90;;;;;;5137350;27;20034;-87
2023/10/23 09:02:51;;;;;;;1301.10;501.77;;;8.80;99.90;;;;;;5137319;27;20042;-86
2023/10/23 09:05:17;;;;;;;1343.43;531.20;;;9.10;99.90;;;;;;5137146;27;20074;-86
2023/10/23 09:07:44;;;;;;;1341.23;524.23;;;9.10;99.90;;;;;;5142885;27;20077;-87
2023/10/23 09:10:10;;;;;;;1327.50;521.40;;;9.40;99.90;;;;;;5158249;27;20104;-87
2023/10/23 09:12:37;;;;;;;1353.53;528.63;;;10.00;99.90;;;;;;5158167;27;20034;-87
2023/10/23 09:15:21;;;;;;;1352.90;540.37;;;9.60;99.90;;;;;;5140627;27;20038;-87
2023/10/23 09:17:50;;;;;;;1357.73;532.97;;;9.60;99.90;;;;;;5176139;27;20048;-86
2023/10/23 09:20:16;;;;;;;1345.57;524.63;;;10.10;99.90;;;;;;5140545;27;20054;-88
2023/10/23 09:22:46;;;;;;;1340.47;523.87;;;9.80;99.90;;;;;;5132601;27;20061;-88
2023/10/23 09:25:14;;;;;;;1343.97;522.30;;;9.90;99.90;;;;;;5155444;27;20411;-87
2023/10/23 09:27:40;;;;;;;1349.57;532.20;;;10.00;99.90;;;;;;5154403;27;20062;-88
2023/10/23 09:30:10;;;;;;;1357.13;532.20;;;10.10;99.90;;;;;;5137939;27;20050;-88
2023/10/23 09:32:37;;;;;;;1366.43;548.73;;;10.20;99.90;;;;;;5155030;27;20042;-90
2023/10/23 09:35:10;;;;;;;1345.70;531.97;;;10.30;99.90;;;;;;5120463;27;20041;-92
2023/10/23 09:37:38;;;;;;;1369.30;559.30;;;10.40;99.90;;;;;;5136762;27;20050;-90
2023/10/23 09:40:09;;;;;;;1376.67;561.27;;;10.50;99.90;;;;;;5136765;27;20043;-90
2023/10/23 09:42:35;;;;;;;1371.93;541.93;;;10.60;99.90;;;;;;5137306;27;20042;-85
2023/10/23 09:45:02;;;;;;;1374.87;559.43;;;10.80;99.90;;;;;;5133433;27;20129;-89
2023/10/23 09:47:29;;;;;;;1389.50;550.63;;;10.90;99.90;;;;;;5175913;27;20487;-90
2023/10/23 09:49:55;;;;;;;1391.07;551.63;;;11.40;99.90;;;;;;5157163;27;20030;-88
2023/10/23 09:52:26;;;;;;;1396.10;553.93;;;11.10;99.90;;;;;;5134844;27;20050;-87
2023/10/23 09:55:00;;;;;;;1390.07;552.23;;;11.20;99.90;;;;;;5155047;27;20442;-89
2023/10/23 09:57:50;;;;;;;1377.87;571.50;;;11.30;99.90;;;;;;5119849;27;20042;-88
2023/10/23 10:00:17;;;;;;;1371.87;566.17;;;11.40;99.90;;;;;;5155949;27;20490;-86
2023/10/23 10:03:11;;;;;;;1371.53;551.50;;;11.50;99.90;;;;;;5162161;27;20111;-89
2023/10/23 10:06:02;;;;;;;1380.80;579.20;;;11.60;99.90;;;;;;5136121;27;20481;-88
2023/10/23 10:08:33;;;;;;;1375.03;579.07;;;11.70;99.90;;;;;;5175918;27;20058;-90
2023/10/23 10:11:00;;;;;;;1383.87;594.03;;;11.70;99.90;;;;;;5155948;27;20031;-89
2023/10/23 10:13:28;;;;;;;1371.83;577.37;;;11.90;99.90;;;;;;5167597;27;20046;-88
2023/10/23 10:15:55;;;;;;;1374.53;589.73;;;11.90;99.90;;;;;;5157196;27;20135;-87
2023/10/23 10:18:21;;;;;;;1376.97;601.43;;;12.00;99.90;;;;;;5139770;27;20058;-86
2023/10/23 10:20:53;;;;;;;1349.93;545.33;;;12.10;99.90;;;;;;5156902;27;20042;-83
2023/10/23 10:23:20;;;;;;;1383.13;594.70;;;12.20;99.90;;;;;;5139605;27;20090;-85
2023/10/23 10:25:46;;;;;;;1378.43;598.10;;;12.30;99.90;;;;;;5122416;27;20061;-84
2023/10/23 10:28:13;;;;;;;1367.33;551.73;;;12.40;99.90;;;;;;5165942;27;20122;-85
2023/10/23 10:30:46;;;;;;;1390.37;598.00;;;12.50;99.90;;;;;;5156656;27;20502;-85
2023/10/23 10:33:20;;;;;;;1387.93;606.67;;;12.60;99.90;;;;;;5157028;27;20046;-85
2023/10/23 10:35:59;;;;;;;1420.40;565.40;;;12.80;99.90;;;;;;5157034;27;20045;-86
2023/10/23 10:38:26;;;;;;;1426.77;575.77;;;12.90;99.90;;;;;;5138117;27;20050;-85
2023/10/23 10:41:04;;;;;;;1433.20;581.77;;;13.00;99.90;;;;;;5140546;27;20034;-85
2023/10/23 10:43:37;;;;;;;1426.80;569.27;;;13.10;99.90;;;;;;5157403;27;20133;-88
2023/10/23 10:46:15;;;;;;;1423.80;564.00;;;13.40;99.90;;;;;;5175777;27;20076;-87
2023/10/23 10:48:43;;;;;;;1381.20;618.30;;;13.30;99.90;;;;;;5175155;27;20042;-87
2023/10/23 10:51:09;;;;;;;1430.67;578.60;;;13.40;99.90;;;;;;5157450;27;20048;-87
2023/10/23 10:53:38;;;;;;;1438.63;582.57;;;13.50;99.90;;;;;;5157650;27;20110;-87
2023/10/23 10:56:08;;;;;;;1436.10;575.43;;;13.60;99.90;;;;;;5176048;27;20130;-87
2023/10/23 10:58:36;;;;;;;1437.20;578.63;;;13.70;99.90;;;;;;5175517;27;20042;-87
2023/10/23 11:01:02;;;;;;;1435.27;584.47;;;13.80;99.90;;;;;;5176335;27;20034;-88
2023/10/23 11:03:31;;;;;;;1427.23;580.50;;;13.80;99.90;;;;;;5169876;27;20043;-86
2023/10/23 11:05:57;;;;;;;1386.23;638.83;;;13.90;99.90;;;;;;5140720;27;20035;-87
2023/10/23 11:08:23;;;;;;;1438.93;593.00;;;13.90;99.90;;;;;;5140204;27;20050;-89
2023/10/23 11:10:49;;;;;;;1387.13;631.70;;;14.00;99.90;;;;;;5153241;27;20164;-90
2023/10/23 11:13:15;;;;;;;1391.97;641.07;;;14.00;99.90;;;;;;5141980;27;20054;-89
2023/10/23 11:15:42;;;;;;;1446.60;596.73;;;14.10;99.90;;;;;;5159858;27;20042;-86
2023/10/23 11:18:08;;;;;;;1390.73;640.43;;;14.10;99.90;;;;;;5158494;27;20110;-86
2023/10/23 11:20:38;;;;;;;1449.83;598.93;;;14.20;99.90;;;;;;5139574;27;20042;-88
2023/10/23 11:23:04;;;;;;;1447.80;593.67;;;14.40;99.90;;;;;;5139449;27;20043;-89
2023/10/23 11:25:30;;;;;;;1387.50;634.30;;;14.30;99.90;;;;;;5124473;27;20066;-88
2023/10/23 11:32:11;;;;;;;1385.30;641.83;;;14.50;99.90;;;;;;5157928;27;20085;-90
2023/10/23 11:34:37;;;;;;;1386.90;642.40;;;14.50;99.90;;;;;;5158270;27;20099;-89
2023/10/23 11:37:05;;;;;;;1387.47;648.80;;;14.60;99.90;;;;;;5122487;27;20043;-90
2023/10/23 11:39:31;;;;;;;1381.70;638.80;;;14.60;99.90;;;;;;5139730;27;20088;-88
2023/10/23 11:41:58;;;;;;;1381.37;644.23;;;14.60;99.90;;;;;;5141045;27;20401;-90
2023/10/23 11:44:25;;;;;;;1382.13;650.87;;;14.60;99.90;;;;;;5129221;27;20133;-89
2023/10/23 11:46:53;;;;;;;1378.13;648.50;;;14.70;99.90;;;;;;5136015;27;20484;-90
2023/10/23 11:49:20;;;;;;;1378.13;647.17;;;14.80;99.90;;;;;;5119434;27;20451;-87
2023/10/23 11:51:46;;;;;;;1373.13;643.50;;;14.70;99.90;;;;;;5157870;27;20113;-94
2023/10/23 11:54:12;;;;;;;1439.93;605.77;;;14.80;99.90;;;;;;5135837;27;20114;-89
2023/10/23 11:56:38;;;;;;;1440.73;609.67;;;14.80;99.90;;;;;;5157697;27;20070;-89
2023/10/23 11:59:04;;;;;;;1377.63;656.23;;;14.90;99.90;;;;;;5158808;27;20101;-87
2023/10/23 12:01:30;;;;;;;1371.00;641.40;;;15.00;99.90;;;;;;5136203;27;20557;-89
2023/10/23 12:03:56;;;;;;;1434.60;607.07;;;15.10;99.90;;;;;;5157398;27;20042;-88
2023/10/23 12:06:22;;;;;;;1426.73;599.50;;;14.90;99.90;;;;;;5156684;27;20035;-88
2023/10/23 12:08:48;;;;;;;1362.70;641.43;;;15.00;99.90;;;;;;5121892;27;20111;-88
2023/10/23 12:11:13;;;;;;;1365.83;651.47;;;15.10;99.90;;;;;;5141497;27;20077;-88
2023/10/23 12:13:39;;;;;;;1420.17;601.40;;;15.10;99.90;;;;;;5138371;27;20138;-87